Time;durP1;ratioP1;P1;durP2;ratioP2;P2;SDS_P1;SDS_P2;PMS_P1;PMS_P2;Temp;Humidity;BMP_temperature;BMP_pressure;BME280_temperature;BME280_humidity;BME280_pressure;Samples;Min_cycle;Max_cycle;Signal;HPM_P1;HPM_P2
2023/10/23 00:02:18;;;;;;;27.27;8.32;;;;;;;;;;4331145;32;318522;-88
2023/10/23 00:04:44;;;;;;;35.67;8.93;;;;;;;;;;4335391;32;318213;-88
2023/10/23 00:07:12;;;;;;;33.17;8.85;;;;;;;;;;4314514;32;318388;-89
2023/10/23 00:09:39;;;;;;;36.08;8.70;;;;;;;;;;4343853;32;318389;-88
2023/10/23 00:12:07;;;;;;;31.23;8.23;;;;;;;;;;4326279;32;318370;-87
2023/10/23 00:14:34;;;;;;;33.60;7.65;;;;;;;;;;4345502;32;318384;-87
2023/10/23 00:17:01;;;;;;;33.15;7.78;;;;;;;;;;4332879;32;318614;-88
2023/10/23 00:19:27;;;;;;;25.88;7.55;;;;;;;;;;4345778;32;318127;-89
2023/10/23 00:21:54;;;;;;;34.83;9.35;;;;;;;;;;4328666;32;318304;-86
2023/10/23 00:24:23;;;;;;;51.20;8.02;;;;;;;;;;4344810;32;318535;-89
2023/10/23 00:26:50;;;;;;;23.75;8.65;;;;;;;;;;4326583;32;347227;-88
2023/10/23 00:29:17;;;;;;;26.73;7.15;;;;;;;;;;4344102;32;318333;-89
2023/10/23 00:31:43;;;;;;;27.37;7.85;;;;;;;;;;4345054;32;318113;-87
2023/10/23 00:34:10;;;;;;;35.50;7.72;;;;;;;;;;4328954;32;318297;-87
2023/10/23 00:36:37;;;;;;;27.20;7.10;;;;;;;;;;4344646;32;318466;-88
2023/10/23 00:39:04;;;;;;;30.27;7.32;;;;;;;;;;4336112;32;318592;-88
2023/10/23 00:41:32;;;;;;;36.67;9.00;;;;;;;;;;4347375;32;318929;-90
2023/10/23 00:44:00;;;;;;;30.12;7.60;;;;;;;;;;4338327;32;355636;-91
2023/10/23 00:46:30;;;;;;;32.47;7.85;;;;;;;;;;4366726;32;316417;-87
2023/10/23 00:48:58;;;;;;;33.70;8.48;;;;;;;;;;4351358;32;316885;-87
2023/10/23 00:51:25;;;;;;;20.83;7.95;;;;;;;;;;4355264;32;352196;-88
2023/10/23 00:53:52;;;;;;;24.23;7.32;;;;;;;;;;4337572;32;318333;-87
2023/10/23 00:56:19;;;;;;;31.40;7.55;;;;;;;;;;4341876;32;318318;-88
2023/10/23 00:58:47;;;;;;;20.67;7.40;;;;;;;;;;4337936;32;318615;-88
2023/10/23 01:01:14;;;;;;;33.75;8.80;;;;;;;;;;4343458;32;317966;-89
2023/10/23 01:03:41;;;;;;;32.25;7.50;;;;;;;;;;4343752;32;318801;-90
2023/10/23 01:06:09;;;;;;;33.00;8.45;;;;;;;;;;4327098;32;318650;-86
2023/10/23 01:08:36;;;;;;;19.87;7.72;;;;;;;;;;4345311;32;317978;-90
2023/10/23 01:11:03;;;;;;;21.25;6.90;;;;;;;;;;4335259;32;318412;-89
2023/10/23 01:13:30;;;;;;;23.00;5.85;;;;;;;;;;4343815;32;318266;-89
2023/10/23 01:15:58;;;;;;;31.45;7.95;;;;;;;;;;4327972;32;318344;-86
2023/10/23 01:18:24;;;;;;;27.98;7.87;;;;;;;;;;4344707;32;322469;-87
2023/10/23 01:20:51;;;;;;;33.38;7.85;;;;;;;;;;4333529;32;318726;-88
2023/10/23 01:23:18;;;;;;;21.42;7.20;;;;;;;;;;4335780;32;317534;-87
2023/10/23 01:25:46;;;;;;;30.35;6.62;;;;;;;;;;4342261;32;318484;-85
2023/10/23 01:28:13;;;;;;;23.67;6.75;;;;;;;;;;4323222;32;417360;-86
2023/10/23 01:30:40;;;;;;;33.45;9.63;;;;;;;;;;4344489;32;318744;-88
2023/10/23 01:33:07;;;;;;;38.78;8.35;;;;;;;;;;4331679;32;330662;-86
2023/10/23 01:35:33;;;;;;;27.15;7.90;;;;;;;;;;4344387;32;318340;-87
2023/10/23 01:38:00;;;;;;;24.98;7.32;;;;;;;;;;4327035;32;318476;-85
2023/10/23 01:40:27;;;;;;;29.67;7.18;;;;;;;;;;4343239;32;317800;-87
2023/10/23 01:42:55;;;;;;;26.60;8.55;;;;;;;;;;4322646;32;318392;-85
2023/10/23 01:45:21;;;;;;;31.10;8.40;;;;;;;;;;4343156;32;321938;-85
2023/10/23 01:47:48;;;;;;;31.37;8.85;;;;;;;;;;4334366;32;318404;-88
2023/10/23 01:50:15;;;;;;;30.75;9.13;;;;;;;;;;4336497;32;318061;-87
2023/10/23 01:52:42;;;;;;;39.17;8.82;;;;;;;;;;4342387;32;338828;-86
2023/10/23 01:55:09;;;;;;;20.37;8.18;;;;;;;;;;4332529;32;354396;-85
2023/10/23 01:57:36;;;;;;;23.50;7.28;;;;;;;;;;4341986;32;340936;-88
2023/10/23 02:00:05;;;;;;;25.48;8.18;;;;;;;;;;4326078;32;318189;-87
2023/10/23 02:02:33;;;;;;;28.12;8.98;;;;;;;;;;4343334;32;318704;-87
2023/10/23 02:05:00;;;;;;;23.65;7.95;;;;;;;;;;4333709;32;318336;-87
2023/10/23 02:07:27;;;;;;;33.65;8.60;;;;;;;;;;4342960;32;318284;-85
2023/10/23 02:09:56;;;;;;;19.48;7.32;;;;;;;;;;4328210;32;318474;-87
2023/10/23 02:12:22;;;;;;;25.37;8.65;;;;;;;;;;4343069;32;318569;-87
2023/10/23 02:14:50;;;;;;;37.47;9.48;;;;;;;;;;4333080;32;318647;-86
2023/10/23 02:17:19;;;;;;;24.33;6.53;;;;;;;;;;4345153;32;318441;-85
2023/10/23 02:19:46;;;;;;;24.92;8.45;;;;;;;;;;4345222;32;341800;-87
2023/10/23 02:22:13;;;;;;;19.10;7.95;;;;;;;;;;4327234;32;419010;-86
2023/10/23 02:24:39;;;;;;;22.42;7.82;;;;;;;;;;4347135;32;318633;-87
2023/10/23 02:27:06;;;;;;;25.80;7.93;;;;;;;;;;4336962;32;318217;-88
2023/10/23 02:29:33;;;;;;;28.67;9.32;;;;;;;;;;4346599;32;318297;-85
2023/10/23 02:32:00;;;;;;;38.08;8.93;;;;;;;;;;4331992;32;318198;-85
2023/10/23 02:34:28;;;;;;;26.08;8.18;;;;;;;;;;4347130;32;318292;-86
2023/10/23 02:36:55;;;;;;;27.25;9.23;;;;;;;;;;4319688;32;317860;-84
2023/10/23 02:39:22;;;;;;;29.45;7.72;;;;;;;;;;4342290;32;319287;-85
2023/10/23 02:41:49;;;;;;;24.65;8.50;;;;;;;;;;4331843;32;318295;-87
2023/10/23 02:44:16;;;;;;;31.23;9.18;;;;;;;;;;4332764;32;318160;-86
2023/10/23 02:46:42;;;;;;;24.15;9.30;;;;;;;;;;4342834;32;318324;-85
2023/10/23 02:49:09;;;;;;;23.85;8.23;;;;;;;;;;4334233;32;318456;-85
2023/10/23 02:51:38;;;;;;;21.75;8.93;;;;;;;;;;4342442;32;318310;-85
2023/10/23 02:54:05;;;;;;;29.65;7.62;;;;;;;;;;4325159;32;317786;-89
2023/10/23 02:56:33;;;;;;;21.75;7.85;;;;;;;;;;4344915;32;317720;-88
2023/10/23 02:59:00;;;;;;;26.80;9.25;;;;;;;;;;4336250;32;322550;-89
2023/10/23 03:01:26;;;;;;;42.10;9.25;;;;;;;;;;4345261;32;318022;-90
2023/10/23 03:03:53;;;;;;;31.30;9.13;;;;;;;;;;4330341;32;318118;-87
2023/10/23 03:06:20;;;;;;;29.45;7.75;;;;;;;;;;4341856;32;318648;-88
2023/10/23 03:08:48;;;;;;;27.90;8.90;;;;;;;;;;4336194;32;344783;-90
2023/10/23 03:11:15;;;;;;;42.72;10.43;;;;;;;;;;4345540;32;317622;-88
2023/10/23 03:13:42;;;;;;;23.55;8.05;;;;;;;;;;4345605;32;319167;-88
2023/10/23 03:16:08;;;;;;;40.78;9.88;;;;;;;;;;4328930;32;318317;-88
2023/10/23 03:18:35;;;;;;;36.38;8.25;;;;;;;;;;4342868;32;318026;-86
2023/10/23 03:21:03;;;;;;;48.83;10.20;;;;;;;;;;4345768;32;318065;-89
2023/10/23 03:23:30;;;;;;;49.22;10.75;;;;;;;;;;4354125;32;319343;-89
2023/10/23 03:25:59;;;;;;;26.73;8.43;;;;;;;;;;4336153;32;318971;-87
2023/10/23 03:28:26;;;;;;;42.22;8.90;;;;;;;;;;4358980;32;318210;-87
2023/10/23 03:30:52;;;;;;;34.55;9.82;;;;;;;;;;4345622;32;318417;-87
2023/10/23 03:33:19;;;;;;;32.33;9.10;;;;;;;;;;4352918;32;318310;-87
2023/10/23 03:35:46;;;;;;;33.72;8.95;;;;;;;;;;4350639;32;318022;-87
2023/10/23 03:38:13;;;;;;;24.65;9.52;;;;;;;;;;4326807;32;417170;-87
2023/10/23 03:40:40;;;;;;;24.42;8.43;;;;;;;;;;4338894;32;317740;-88
2023/10/23 03:43:08;;;;;;;34.33;10.43;;;;;;;;;;4335194;32;318161;-88
2023/10/23 03:45:36;;;;;;;32.72;9.60;;;;;;;;;;4324518;32;319399;-87
2023/10/23 03:48:03;;;;;;;39.38;9.98;;;;;;;;;;4313397;32;318610;-87
2023/10/23 03:50:30;;;;;;;33.35;10.68;;;;;;;;;;4323019;32;318249;-89
2023/10/23 03:52:57;;;;;;;32.83;9.80;;;;;;;;;;4319983;32;319825;-87
2023/10/23 03:55:24;;;;;;;27.67;9.07;;;;;;;;;;4331177;32;318118;-87
2023/10/23 03:57:52;;;;;;;32.95;8.90;;;;;;;;;;4315977;32;388747;-88
2023/10/23 04:00:20;;;;;;;26.55;8.82;;;;;;;;;;4330411;32;318150;-87
2023/10/23 04:02:47;;;;;;;26.65;9.10;;;;;;;;;;4336231;32;336604;-88
2023/10/23 04:05:13;;;;;;;38.17;10.05;;;;;;;;;;4345931;32;318514;-87
2023/10/23 04:07:40;;;;;;;28.08;9.88;;;;;;;;;;4345987;32;319655;-88
2023/10/23 04:10:08;;;;;;;32.85;8.80;;;;;;;;;;4327439;32;317553;-88
2023/10/23 04:12:35;;;;;;;36.30;11.07;;;;;;;;;;4343883;32;317564;-88
2023/10/23 04:15:03;;;;;;;31.37;11.48;;;;;;;;;;4335905;32;319519;-88
2023/10/23 04:17:31;;;;;;;34.40;11.38;;;;;;;;;;4345408;32;319277;-87
2023/10/23 04:19:57;;;;;;;27.95;9.95;;;;;;;;;;4328920;32;319598;-89
2023/10/23 04:22:25;;;;;;;39.25;10.30;;;;;;;;;;4344366;32;318153;-88
2023/10/23 04:24:53;;;;;;;27.92;10.25;;;;;;;;;;4335341;32;319546;-90
2023/10/23 04:27:20;;;;;;;37.85;13.90;;;;;;;;;;4344419;32;319131;-86
2023/10/23 04:29:47;;;;;;;25.00;10.23;;;;;;;;;;4334064;32;319134;-89
2023/10/23 04:32:14;;;;;;;34.50;9.57;;;;;;;;;;4338058;32;319825;-90
2023/10/23 04:34:42;;;;;;;34.47;10.27;;;;;;;;;;4333288;32;356152;-89
2023/10/23 04:37:08;;;;;;;30.85;10.43;;;;;;;;;;4340864;32;319205;-89
2023/10/23 04:39:35;;;;;;;26.42;10.40;;;;;;;;;;4342896;32;355017;-90
2023/10/23 04:42:02;;;;;;;33.63;10.80;;;;;;;;;;4334588;32;319331;-89
2023/10/23 04:44:29;;;;;;;36.70;12.02;;;;;;;;;;4343153;32;319481;-89
2023/10/23 04:46:56;;;;;;;37.75;10.77;;;;;;;;;;4338068;32;319353;-89
2023/10/23 04:49:22;;;;;;;25.05;10.77;;;;;;;;;;4330110;32;418811;-89
2023/10/23 04:51:50;;;;;;;35.15;11.35;;;;;;;;;;4342012;32;319577;-89
2023/10/23 04:54:17;;;;;;;32.75;11.80;;;;;;;;;;4326725;32;338911;-89
2023/10/23 04:56:44;;;;;;;30.37;11.27;;;;;;;;;;4338382;32;319230;-88
2023/10/23 04:59:11;;;;;;;39.45;10.07;;;;;;;;;;4333941;32;319555;-89
2023/10/23 05:01:38;;;;;;;25.17;9.98;;;;;;;;;;4344418;32;319337;-89
2023/10/23 05:04:05;;;;;;;33.45;11.80;;;;;;;;;;4338553;32;318569;-87
2023/10/23 05:06:32;;;;;;;63.15;18.92;;;;;;;;;;4350923;32;318536;-87
2023/10/23 05:09:00;;;;;;;42.75;17.08;;;;;;;;;;4328149;32;318078;-89
2023/10/23 05:11:27;;;;;;;41.35;15.57;;;;;;;;;;4353236;32;317697;-88
2023/10/23 05:13:54;;;;;;;44.78;13.68;;;;;;;;;;4346859;32;319779;-90
2023/10/23 05:16:20;;;;;;;45.80;14.70;;;;;;;;;;4335844;32;319242;-87
2023/10/23 05:18:47;;;;;;;27.15;12.30;;;;;;;;;;4335163;32;319279;-88
2023/10/23 05:21:14;;;;;;;39.03;13.85;;;;;;;;;;4333380;32;319001;-87
2023/10/23 05:23:41;;;;;;;31.58;11.18;;;;;;;;;;4341688;32;319488;-88
2023/10/23 05:26:11;;;;;;;35.00;13.65;;;;;;;;;;4333983;32;319102;-86
2023/10/23 05:28:40;;;;;;;34.35;11.57;;;;;;;;;;4338681;32;319406;-87
2023/10/23 05:31:06;;;;;;;46.45;12.93;;;;;;;;;;4333210;32;319402;-87
2023/10/23 05:33:33;;;;;;;28.92;12.55;;;;;;;;;;4342791;32;319550;-88
2023/10/23 05:36:04;;;;;;;47.35;13.32;;;;;;;;;;4332094;32;319563;-87
2023/10/23 05:38:31;;;;;;;34.63;11.80;;;;;;;;;;4343485;32;319404;-88
2023/10/23 05:40:58;;;;;;;33.75;11.32;;;;;;;;;;4326997;32;319149;-87
2023/10/23 05:43:27;;;;;;;32.75;11.73;;;;;;;;;;4343002;32;319359;-87
2023/10/23 05:45:54;;;;;;;29.05;10.23;;;;;;;;;;4344027;32;319363;-88
2023/10/23 05:48:20;;;;;;;42.25;11.25;;;;;;;;;;4332349;32;319055;-88
2023/10/23 05:50:57;;;;;;;49.72;12.52;;;;;;;;;;4335411;32;351650;-88
2023/10/23 05:53:24;;;;;;;31.67;11.82;;;;;;;;;;4324436;32;419881;-88
2023/10/23 05:55:50;;;;;;;31.45;11.38;;;;;;;;;;4342602;32;319198;-89
2023/10/23 05:58:17;;;;;;;41.47;11.90;;;;;;;;;;4333730;32;319356;-89
2023/10/23 06:00:45;;;;;;;29.92;11.27;;;;;;;;;;4336129;32;319128;-89
2023/10/23 06:03:12;;;;;;;39.30;13.77;;;;;;;;;;4333301;32;319322;-87
2023/10/23 06:05:41;;;;;;;34.65;12.50;;;;;;;;;;4341702;32;318152;-85
2023/10/23 06:08:07;;;;;;;43.65;13.10;;;;;;;;;;4331596;32;319396;-90
2023/10/23 06:10:40;;;;;;;34.97;12.07;;;;;;;;;;4339689;32;319400;-90
2023/10/23 06:13:07;;;;;;;37.28;11.32;;;;;;;;;;4333835;32;319438;-90
2023/10/23 06:15:34;;;;;;;32.75;13.38;;;;;;;;;;4344848;32;319482;-96
2023/10/23 06:18:02;;;;;;;34.50;11.90;;;;;;;;;;4332862;32;319014;-96
2023/10/23 06:20:29;;;;;;;40.53;11.60;;;;;;;;;;4343728;32;319290;-96
2023/10/23 06:22:56;;;;;;;58.40;12.30;;;;;;;;;;4335666;32;319047;-95
2023/10/23 06:25:23;;;;;;;40.47;12.95;;;;;;;;;;4330386;32;419856;-95
2023/10/23 06:27:49;;;;;;;45.20;16.95;;;;;;;;;;4342856;32;319407;-95
2023/10/23 06:30:16;;;;;;;41.15;14.15;;;;;;;;;;4333690;32;319249;-96
2023/10/23 06:32:43;;;;;;;46.83;15.63;;;;;;;;;;4341479;32;319334;-96
2023/10/23 06:35:11;;;;;;;40.00;12.32;;;;;;;;;;4337253;32;318724;-88
2023/10/23 06:37:38;;;;;;;29.20;11.20;;;;;;;;;;4349462;32;319493;-89
2023/10/23 06:40:07;;;;;;;29.52;11.82;;;;;;;;;;4334400;32;319642;-96
2023/10/23 06:42:35;;;;;;;43.58;11.98;;;;;;;;;;4345681;32;319475;-92
2023/10/23 06:45:03;;;;;;;40.80;10.95;;;;;;;;;;4338454;32;319312;-88
2023/10/23 06:47:30;;;;;;;28.80;11.52;;;;;;;;;;4351780;32;319360;-88
2023/10/23 06:49:57;;;;;;;35.47;12.23;;;;;;;;;;4349624;32;319477;-87
2023/10/23 06:52:25;;;;;;;41.42;12.15;;;;;;;;;;4335825;32;419280;-89
2023/10/23 06:54:51;;;;;;;30.98;10.90;;;;;;;;;;4344260;32;319285;-88
2023/10/23 06:57:21;;;;;;;27.67;11.18;;;;;;;;;;4338265;32;335214;-88
2023/10/23 06:59:48;;;;;;;25.85;10.00;;;;;;;;;;4349640;32;319515;-89
2023/10/23 07:02:15;;;;;;;38.10;9.98;;;;;;;;;;4340880;32;318653;-90
2023/10/23 07:04:41;;;;;;;43.90;11.32;;;;;;;;;;4347402;32;318393;-87
2023/10/23 07:07:08;;;;;;;26.50;9.85;;;;;;;;;;4339386;32;319624;-88
2023/10/23 07:09:36;;;;;;;31.58;10.43;;;;;;;;;;4351828;32;318688;-88
2023/10/23 07:12:03;;;;;;;32.05;9.45;;;;;;;;;;4341307;32;319393;-89
2023/10/23 07:14:30;;;;;;;37.60;9.85;;;;;;;;;;4351820;32;317951;-88
2023/10/23 07:16:56;;;;;;;26.52;9.85;;;;;;;;;;4346126;32;317941;-87
2023/10/23 07:19:23;;;;;;;33.05;10.02;;;;;;;;;;4334854;32;418728;-87
2023/10/23 07:21:50;;;;;;;29.48;9.77;;;;;;;;;;4349452;32;319577;-87
2023/10/23 07:24:17;;;;;;;28.12;9.43;;;;;;;;;;4326722;32;318434;-88
2023/10/23 07:26:45;;;;;;;23.90;9.13;;;;;;;;;;4344973;32;318551;-89
2023/10/23 07:29:11;;;;;;;33.03;10.65;;;;;;;;;;4340092;32;318297;-89
2023/10/23 07:31:38;;;;;;;24.67;9.75;;;;;;;;;;4342350;32;319232;-87
2023/10/23 07:34:05;;;;;;;33.35;10.75;;;;;;;;;;4340427;32;318260;-88
2023/10/23 07:36:32;;;;;;;31.48;11.50;;;;;;;;;;4350534;32;318582;-88
2023/10/23 07:38:59;;;;;;;27.90;10.15;;;;;;;;;;4334523;32;319421;-90
2023/10/23 07:41:26;;;;;;;28.55;10.35;;;;;;;;;;4350252;32;318846;-88
2023/10/23 07:43:54;;;;;;;25.33;9.35;;;;;;;;;;4343524;32;319308;-87
2023/10/23 07:46:20;;;;;;;32.88;10.27;;;;;;;;;;4336791;32;318625;-89
2023/10/23 07:48:47;;;;;;;38.83;11.75;;;;;;;;;;4338770;32;319391;-84
2023/10/23 07:51:14;;;;;;;43.53;12.73;;;;;;;;;;4322599;32;319761;-85
2023/10/23 07:53:41;;;;;;;37.28;16.25;;;;;;;;;;4346126;32;319236;-93
2023/10/23 07:56:08;;;;;;;42.62;12.82;;;;;;;;;;4335112;32;318898;-93
2023/10/23 07:58:35;;;;;;;37.30;11.93;;;;;;;;;;4343420;32;355807;-85
2023/10/23 08:01:05;;;;;;;43.42;12.37;;;;;;;;;;4329087;32;319781;-86
2023/10/23 08:03:33;;;;;;;29.27;11.43;;;;;;;;;;4345588;32;319314;-87
2023/10/23 08:06:00;;;;;;;38.90;14.95;;;;;;;;;;4334548;32;319387;-88
2023/10/23 08:08:26;;;;;;;37.08;12.85;;;;;;;;;;4344268;32;319356;-89
2023/10/23 08:10:53;;;;;;;39.38;12.70;;;;;;;;;;4339014;32;319620;-94
2023/10/23 08:13:20;;;;;;;46.95;13.82;;;;;;;;;;4335128;32;319459;-94
2023/10/23 08:15:46;;;;;;;41.28;12.82;;;;;;;;;;4344342;32;318918;-93
2023/10/23 08:18:14;;;;;;;33.55;13.27;;;;;;;;;;4336075;32;319570;-93
2023/10/23 08:20:41;;;;;;;36.53;13.23;;;;;;;;;;4339407;32;318736;-92
2023/10/23 08:23:08;;;;;;;33.53;12.88;;;;;;;;;;4336287;32;319834;-94
2023/10/23 08:25:34;;;;;;;52.92;14.13;;;;;;;;;;4345089;32;319533;-96
2023/10/23 08:28:02;;;;;;;29.02;12.48;;;;;;;;;;4333629;32;319560;-91
2023/10/23 08:30:29;;;;;;;46.50;13.32;;;;;;;;;;4346155;32;319599;-89
2023/10/23 08:32:56;;;;;;;35.42;13.13;;;;;;;;;;4337802;32;319560;-92
2023/10/23 08:35:27;;;;;;;41.50;13.35;;;;;;;;;;4330676;32;418301;-94
2023/10/23 08:37:54;;;;;;;32.80;13.02;;;;;;;;;;4345668;32;319437;-91
2023/10/23 08:40:21;;;;;;;32.42;13.98;;;;;;;;;;4334469;32;319575;-85
2023/10/23 08:42:48;;;;;;;33.00;12.45;;;;;;;;;;4338437;32;319847;-93
2023/10/23 08:45:16;;;;;;;38.35;12.73;;;;;;;;;;4328957;32;319826;-87
2023/10/23 08:47:43;;;;;;;40.42;13.85;;;;;;;;;;4345553;32;318823;-89
2023/10/23 08:50:10;;;;;;;43.17;13.30;;;;;;;;;;4333082;32;319456;-85
2023/10/23 08:52:44;;;;;;;36.22;12.68;;;;;;;;;;4339953;32;319014;-86
2023/10/23 08:55:13;;;;;;;45.55;13.10;;;;;;;;;;4333672;32;319597;-84
2023/10/23 08:57:44;;;;;;;32.50;11.50;;;;;;;;;;4344675;32;319342;-87
2023/10/23 09:00:11;;;;;;;32.90;11.55;;;;;;;;;;4335868;32;319561;-87
2023/10/23 09:02:39;;;;;;;39.83;12.50;;;;;;;;;;4338704;32;319387;-87
2023/10/23 09:05:07;;;;;;;37.90;11.90;;;;;;;;;;4335243;32;319334;-87
2023/10/23 09:07:34;;;;;;;29.55;9.85;;;;;;;;;;4345598;32;318961;-88
2023/10/23 09:10:03;;;;;;;36.10;11.18;;;;;;;;;;4334722;32;318201;-87
2023/10/23 09:12:31;;;;;;;39.15;12.48;;;;;;;;;;4347487;32;318897;-89
2023/10/23 09:14:58;;;;;;;45.22;12.75;;;;;;;;;;4330045;32;319093;-88
2023/10/23 09:17:26;;;;;;;31.77;10.13;;;;;;;;;;4345367;32;318849;-88
2023/10/23 09:19:53;;;;;;;30.52;9.68;;;;;;;;;;4346283;32;319609;-88
2023/10/23 09:22:20;;;;;;;27.50;9.10;;;;;;;;;;4335948;32;318265;-87
2023/10/23 09:24:46;;;;;;;23.73;9.20;;;;;;;;;;4340006;32;318443;-89
2023/10/23 09:27:15;;;;;;;31.05;10.50;;;;;;;;;;4349495;32;317445;-91
2023/10/23 09:29:41;;;;;;;40.22;11.50;;;;;;;;;;4360121;32;319167;-92
2023/10/23 09:32:08;;;;;;;45.72;12.52;;;;;;;;;;4352884;32;318989;-95
2023/10/23 09:34:41;;;;;;;39.00;12.02;;;;;;;;;;4363961;32;317615;-96
2023/10/23 09:37:08;;;;;;;41.75;12.98;;;;;;;;;;4340410;32;352951;-86
2023/10/23 09:39:37;;;;;;;53.05;11.77;;;;;;;;;;4345909;32;319450;-88
2023/10/23 09:42:07;;;;;;;66.80;13.02;;;;;;;;;;4329438;32;319732;-89
2023/10/23 09:44:37;;;;;;;34.10;10.73;;;;;;;;;;4337198;32;319324;-87
2023/10/23 09:47:06;;;;;;;36.28;11.18;;;;;;;;;;4330389;32;319781;-87
2023/10/23 09:49:33;;;;;;;39.70;10.77;;;;;;;;;;4343737;32;318748;-93
2023/10/23 09:52:01;;;;;;;35.00;9.70;;;;;;;;;;4321085;32;319784;-87
2023/10/23 09:54:31;;;;;;;30.85;9.88;;;;;;;;;;4333128;32;318312;-87
2023/10/23 09:57:03;;;;;;;31.83;10.23;;;;;;;;;;4327867;32;318084;-86
2023/10/23 09:59:38;;;;;;;32.80;12.85;;;;;;;;;;4329731;32;319721;-87
2023/10/23 10:02:07;;;;;;;30.10;9.55;;;;;;;;;;4325406;32;318642;-86
2023/10/23 10:04:41;;;;;;;34.13;10.55;;;;;;;;;;4344486;32;318302;-88
2023/10/23 10:07:11;;;;;;;38.55;10.00;;;;;;;;;;4338155;32;319322;-89
2023/10/23 10:09:39;;;;;;;34.78;9.20;;;;;;;;;;4340667;32;329325;-88
2023/10/23 10:12:07;;;;;;;32.35;8.95;;;;;;;;;;4315498;32;318183;-88
2023/10/23 10:14:35;;;;;;;33.47;10.38;;;;;;;;;;4331965;32;317692;-87
2023/10/23 10:17:03;;;;;;;23.75;8.93;;;;;;;;;;4313643;32;319489;-86
2023/10/23 10:19:32;;;;;;;33.88;8.85;;;;;;;;;;4331956;32;318486;-87
2023/10/23 10:22:05;;;;;;;33.85;8.80;;;;;;;;;;4321634;32;318010;-88
2023/10/23 10:24:34;;;;;;;36.10;10.73;;;;;;;;;;4335056;32;317664;-87
2023/10/23 10:27:03;;;;;;;33.58;8.40;;;;;;;;;;4324002;32;319138;-86
2023/10/23 10:29:31;;;;;;;21.00;8.00;;;;;;;;;;4333284;32;318433;-85
2023/10/23 10:32:06;;;;;;;27.73;9.48;;;;;;;;;;4316942;32;318593;-86
2023/10/23 10:34:35;;;;;;;34.28;8.93;;;;;;;;;;4333796;32;318245;-86
2023/10/23 10:37:04;;;;;;;31.23;8.98;;;;;;;;;;4326562;32;318330;-85
2023/10/23 10:40:08;;;;;;;40.67;9.43;;;;;;;;;;4334030;32;318261;-84
2023/10/23 10:42:40;;;;;;;26.50;8.52;;;;;;;;;;4322872;32;418553;-84
2023/10/23 10:45:16;;;;;;;38.75;10.10;;;;;;;;;;4333578;32;318418;-86
2023/10/23 10:47:45;;;;;;;35.92;10.73;;;;;;;;;;4341971;32;319688;-85
2023/10/23 10:50:30;;;;;;;23.80;8.75;;;;;;;;;;4347667;32;318718;-86
2023/10/23 10:53:00;;;;;;;32.10;10.73;;;;;;;;;;4340130;32;318337;-83
2023/10/23 10:55:27;;;;;;;32.80;9.60;;;;;;;;;;4350478;32;318850;-87
2023/10/23 10:57:55;;;;;;;40.42;10.77;;;;;;;;;;4328962;32;318819;-88
2023/10/23 11:00:22;;;;;;;28.33;8.65;;;;;;;;;;4338569;32;319618;-89
2023/10/23 11:02:51;;;;;;;33.65;8.70;;;;;;;;;;4320855;32;318713;-88
2023/10/23 11:05:19;;;;;;;33.15;9.18;;;;;;;;;;4329245;32;318143;-87
2023/10/23 11:07:50;;;;;;;32.05;9.15;;;;;;;;;;4318296;32;397412;-88
2023/10/23 11:10:16;;;;;;;38.97;9.48;;;;;;;;;;4327545;32;317869;-86
2023/10/23 11:12:43;;;;;;;42.28;10.93;;;;;;;;;;4321232;32;318510;-87
2023/10/23 11:15:10;;;;;;;41.17;12.93;;;;;;;;;;4328353;32;318855;-87
2023/10/23 11:17:37;;;;;;;29.55;9.55;;;;;;;;;;4331192;32;319297;-89
2023/10/23 11:20:08;;;;;;;40.80;12.90;;;;;;;;;;4314890;32;318418;-89
2023/10/23 11:22:38;;;;;;;34.30;11.48;;;;;;;;;;4331224;32;319488;-86
2023/10/23 11:25:08;;;;;;;34.70;11.05;;;;;;;;;;4319279;32;319673;-83
2023/10/23 11:27:35;;;;;;;32.35;8.88;;;;;;;;;;4345833;32;319537;-84
2023/10/23 11:30:03;;;;;;;35.40;9.07;;;;;;;;;;4328014;32;318297;-85
2023/10/23 11:32:30;;;;;;;28.52;9.90;;;;;;;;;;4345970;32;318246;-88
2023/10/23 11:35:03;;;;;;;26.73;9.73;;;;;;;;;;4335530;32;318360;-86
2023/10/23 11:37:32;;;;;;;37.45;8.73;;;;;;;;;;4344655;32;318349;-86
2023/10/23 11:40:06;;;;;;;35.58;10.07;;;;;;;;;;4326218;32;340611;-87
2023/10/23 11:42:42;;;;;;;28.62;7.80;;;;;;;;;;4334933;32;319056;-87
2023/10/23 11:45:11;;;;;;;34.97;8.68;;;;;;;;;;4331281;32;418859;-90
2023/10/23 11:47:38;;;;;;;28.92;7.20;;;;;;;;;;4342736;32;319015;-90
2023/10/23 11:50:10;;;;;;;38.42;8.48;;;;;;;;;;4327643;32;318449;-89
2023/10/23 11:52:37;;;;;;;42.20;7.22;;;;;;;;;;4346623;32;318492;-90
2023/10/23 11:55:07;;;;;;;45.90;9.15;;;;;;;;;;4335580;32;318299;-86
2023/10/23 11:57:35;;;;;;;20.55;5.65;;;;;;;;;;4345511;32;319187;-89
2023/10/23 12:00:03;;;;;;;31.87;6.15;;;;;;;;;;4324782;32;318351;-89
2023/10/23 12:02:30;;;;;;;36.92;6.70;;;;;;;;;;4345414;32;317790;-83
2023/10/23 12:04:56;;;;;;;32.92;7.35;;;;;;;;;;4334532;32;318723;-86
2023/10/23 12:07:23;;;;;;;28.62;7.53;;;;;;;;;;4345650;32;318715;-89
2023/10/23 12:09:50;;;;;;;30.98;8.13;;;;;;;;;;4329596;32;317725;-80
2023/10/23 12:12:18;;;;;;;39.05;8.90;;;;;;;;;;4344457;32;318407;-87
2023/10/23 12:14:45;;;;;;;34.60;8.20;;;;;;;;;;4334303;32;318543;-86
2023/10/23 12:17:11;;;;;;;26.80;7.22;;;;;;;;;;4342421;32;343672;-81
2023/10/23 12:19:38;;;;;;;34.70;7.75;;;;;;;;;;4343589;32;318472;-81
2023/10/23 12:22:05;;;;;;;28.55;7.20;;;;;;;;;;4326766;32;318429;-81
2023/10/23 12:24:32;;;;;;;28.80;7.30;;;;;;;;;;4344364;32;318325;-81
2023/10/23 12:26:59;;;;;;;46.42;8.70;;;;;;;;;;4328168;32;318572;-82
2023/10/23 12:29:27;;;;;;;31.67;7.53;;;;;;;;;;4343009;32;344096;-82
2023/10/23 12:31:54;;;;;;;33.95;7.00;;;;;;;;;;4327080;32;318418;-89
2023/10/23 12:34:20;;;;;;;33.65;6.70;;;;;;;;;;4342377;32;318726;-87
2023/10/23 12:36:48;;;;;;;25.15;6.82;;;;;;;;;;4327846;32;318406;-90
2023/10/23 12:39:14;;;;;;;21.95;6.55;;;;;;;;;;4343991;32;318280;-88
2023/10/23 12:41:41;;;;;;;21.85;6.50;;;;;;;;;;4342434;32;318428;-87
2023/10/23 12:44:08;;;;;;;35.72;7.50;;;;;;;;;;4320656;32;417678;-89
2023/10/23 12:46:36;;;;;;;26.37;6.72;;;;;;;;;;4344746;32;318592;-89
2023/10/23 12:49:02;;;;;;;29.12;7.18;;;;;;;;;;4336825;32;317804;-90
2023/10/23 12:51:29;;;;;;;31.83;7.05;;;;;;;;;;4347081;32;318665;-88
2023/10/23 12:53:56;;;;;;;30.60;6.25;;;;;;;;;;4328412;32;318532;-87
2023/10/23 12:56:23;;;;;;;31.92;6.93;;;;;;;;;;4343343;32;318700;-87
2023/10/23 12:58:49;;;;;;;34.75;6.68;;;;;;;;;;4334708;32;324050;-87
2023/10/23 13:01:17;;;;;;;29.12;6.55;;;;;;;;;;4344136;32;318425;-88
2023/10/23 13:03:45;;;;;;;42.80;6.45;;;;;;;;;;4335152;32;327882;-87
2023/10/23 13:06:11;;;;;;;38.95;6.85;;;;;;;;;;4338301;32;318977;-87
2023/10/23 13:08:39;;;;;;;26.48;7.30;;;;;;;;;;4345413;32;317686;-87
2023/10/23 13:11:06;;;;;;;24.27;6.53;;;;;;;;;;4334463;32;318590;-87
2023/10/23 13:13:33;;;;;;;17.33;5.90;;;;;;;;;;4348209;32;318077;-88
2023/10/23 13:15:59;;;;;;;28.87;5.62;;;;;;;;;;4325480;32;339845;-88
2023/10/23 13:18:26;;;;;;;29.42;6.30;;;;;;;;;;4344097;32;318233;-87
2023/10/23 13:20:54;;;;;;;22.48;6.40;;;;;;;;;;4333761;32;318746;-88
2023/10/23 13:23:21;;;;;;;35.67;7.70;;;;;;;;;;4343966;32;318939;-87
2023/10/23 13:25:47;;;;;;;25.85;7.60;;;;;;;;;;4326354;32;343040;-90
2023/10/23 13:28:14;;;;;;;26.30;6.68;;;;;;;;;;4332741;32;318947;-86
2023/10/23 13:30:41;;;;;;;24.17;6.28;;;;;;;;;;4341805;32;318551;-88
2023/10/23 13:33:07;;;;;;;27.77;5.75;;;;;;;;;;4331180;32;318897;-85
2023/10/23 13:35:34;;;;;;;31.87;7.20;;;;;;;;;;4343511;32;318294;-88
2023/10/23 13:38:02;;;;;;;34.97;7.80;;;;;;;;;;4326635;32;318678;-87
2023/10/23 13:40:30;;;;;;;27.87;7.28;;;;;;;;;;4344561;32;318421;-88
2023/10/23 13:42:57;;;;;;;24.10;6.65;;;;;;;;;;4334701;32;318747;-87
2023/10/23 13:45:24;;;;;;;30.23;7.03;;;;;;;;;;4344561;32;318132;-87
2023/10/23 13:47:50;;;;;;;36.10;7.18;;;;;;;;;;4337343;32;317824;-88
2023/10/23 13:50:17;;;;;;;30.33;7.12;;;;;;;;;;4361964;32;317226;-87
2023/10/23 13:52:44;;;;;;;26.65;8.10;;;;;;;;;;4353644;32;316900;-88
2023/10/23 13:55:12;;;;;;;25.25;6.40;;;;;;;;;;4362540;32;316829;-86
2023/10/23 13:57:39;;;;;;;19.12;6.18;;;;;;;;;;4360503;32;317469;-86
2023/10/23 14:00:09;;;;;;;23.12;6.85;;;;;;;;;;4326859;32;318875;-87
2023/10/23 14:02:36;;;;;;;21.33;5.68;;;;;;;;;;4344348;32;318316;-88
2023/10/23 14:05:03;;;;;;;17.40;5.57;;;;;;;;;;4333297;32;336177;-87
2023/10/23 14:07:29;;;;;;;29.70;6.90;;;;;;;;;;4343022;32;318660;-86
2023/10/23 14:09:56;;;;;;;26.65;7.25;;;;;;;;;;4327096;32;318660;-86
2023/10/23 14:12:24;;;;;;;25.62;6.50;;;;;;;;;;4343579;32;318680;-89
2023/10/23 14:14:51;;;;;;;31.40;7.32;;;;;;;;;;4332693;32;318446;-88